createdAt,value
2018-12-08T00:00:29.968Z,96269.40
2018-12-08T00:02:59.392Z,96279.62
2018-12-08T00:05:28.846Z,96275.25
2018-12-08T00:07:58.289Z,96279.75
2018-12-08T00:10:27.741Z,96281.58
2018-12-08T00:12:57.145Z,96277.06
2018-12-08T00:15:26.585Z,96277.93
2018-12-08T00:17:55.989Z,96283.91
2018-12-08T00:20:25.434Z,96285.73
2018-12-08T00:22:54.844Z,96285.86
2018-12-08T00:25:24.322Z,96286.73
2018-12-08T00:27:53.740Z,96285.86
2018-12-08T00:31:33.899Z,96275.61
2018-12-08T00:34:03.301Z,96282.94
2018-12-08T00:36:32.742Z,96293.19
2018-12-08T00:39:02.177Z,96290.13
2018-12-08T00:41:32.761Z,96286.95
2018-12-08T00:44:02.225Z,96284.75
2018-12-08T00:46:31.688Z,96284.02
2018-12-08T00:49:01.123Z,96279.17
2018-12-08T00:51:30.572Z,96272.81
2018-12-08T00:54:05.133Z,96262.69
2018-12-08T00:56:34.622Z,96252.44
2018-12-08T00:59:04.040Z,96257.33
2018-12-08T01:01:33.501Z,96253.78
2018-12-08T01:04:02.904Z,96251.23
2018-12-08T01:06:32.376Z,96255.73
2018-12-08T01:09:01.800Z,96255.73
2018-12-08T01:11:32.401Z,96258.06
2018-12-08T01:14:01.816Z,96270.14
2018-12-08T01:16:31.261Z,96267.46
2018-12-08T01:19:00.687Z,96267.08
2018-12-08T01:21:30.126Z,96272.44
2018-12-08T01:23:59.529Z,96274.30
2018-12-08T01:26:28.958Z,96284.17
2018-12-08T01:28:58.361Z,96280.63
2018-12-08T01:31:27.769Z,96281.10
2018-12-08T01:33:57.207Z,96290.14
2018-12-08T01:36:26.666Z,96282.09
2018-12-08T01:38:56.100Z,96268.68
2018-12-08T01:41:25.547Z,96270.02
2018-12-08T01:43:54.989Z,96263.80
2018-12-08T01:46:24.432Z,96262.11
2018-12-08T01:48:53.888Z,96265.62
2018-12-08T01:51:23.294Z,96263.55
2018-12-08T01:53:52.777Z,96264.89
2018-12-08T01:56:22.201Z,96263.06
2018-12-08T01:58:51.760Z,96256.49
2018-12-08T02:01:21.164Z,96258.70
2018-12-08T02:03:57.185Z,96256.49
2018-12-08T02:06:26.597Z,96246.86
2018-12-08T02:08:56.031Z,96243.08
2018-12-08T02:11:27.500Z,96245.28
2018-12-08T02:13:56.916Z,96251.13
2018-12-08T02:16:26.315Z,96253.94
2018-12-08T02:18:55.753Z,96264.16
2018-12-08T02:21:25.155Z,96270.03
2018-12-08T02:23:54.575Z,96266.97
2018-12-08T02:26:24.060Z,96271.48
2018-12-08T02:28:53.508Z,96277.70
2018-12-08T02:31:22.977Z,96279.17
2018-12-08T02:33:52.396Z,96291.59
2018-12-08T02:36:21.805Z,96302.33
2018-12-08T02:38:51.196Z,96310.02
2018-12-08T02:41:20.622Z,96314.05
2018-12-08T02:43:50.019Z,96310.02
2018-12-08T02:46:19.452Z,96307.82
2018-12-08T02:48:48.865Z,96313.67
2018-12-08T02:51:18.287Z,96316.34
2018-12-08T02:53:47.696Z,96320.88
2018-12-08T02:56:17.095Z,96331.10
2018-12-08T02:58:46.485Z,96338.32
2018-12-08T03:01:15.911Z,96347.20
2018-12-08T03:03:45.313Z,96348.67
2018-12-08T03:06:14.757Z,96353.42
2018-12-08T03:08:44.182Z,96357.92
2018-12-08T03:11:13.600Z,96354.41
2018-12-08T03:13:43.096Z,96359.40
2018-12-08T03:16:12.545Z,96376.36
2018-12-08T03:18:41.942Z,96370.12
2018-12-08T03:21:11.410Z,96379.03
2018-12-08T03:23:40.812Z,96381.34
2018-12-08T03:26:10.240Z,96387.69
2018-12-08T03:28:40.683Z,96403.31
2018-12-08T03:31:10.124Z,96414.13
2018-12-08T03:33:39.653Z,96431.22
2018-12-08T03:36:09.092Z,96438.78
2018-12-08T03:38:38.480Z,96459.63
2018-12-08T03:41:07.934Z,96479.36
2018-12-08T03:43:37.335Z,96498.02
2018-12-08T03:46:06.753Z,96477.55
2018-12-08T03:48:36.194Z,96473.05
2018-12-08T03:51:05.739Z,96474.39
2018-12-08T03:53:37.214Z,96479.75
2018-12-08T03:56:06.653Z,96482.52
2018-12-08T03:58:36.091Z,96482.91
2018-12-08T04:01:05.560Z,96482.91
2018-12-08T04:03:34.996Z,96477.67
2018-12-08T04:06:04.409Z,96481.19
2018-12-08T04:08:33.851Z,96444.75
2018-12-08T04:11:03.304Z,96442.06
2018-12-08T04:13:32.745Z,96459.59
2018-12-08T04:16:02.196Z,96471.19
2018-12-08T04:18:31.596Z,96459.11
2018-12-08T04:21:01.054Z,96446.19
2018-12-08T04:23:30.454Z,96423.86
2018-12-08T04:25:59.876Z,96412.88
2018-12-08T04:28:29.278Z,96404.36
2018-12-08T04:30:58.687Z,96419.45
2018-12-08T04:33:28.108Z,96425.30
2018-12-08T04:35:57.615Z,96433.73
2018-12-08T04:38:27.024Z,96440.91
2018-12-08T04:40:56.441Z,96443.72
2018-12-08T04:43:25.886Z,96430.66
2018-12-08T04:45:55.271Z,96434.33
2018-12-08T04:48:24.672Z,96438.36
2018-12-08T04:50:55.154Z,96428.59
2018-12-08T04:53:24.601Z,96426.29
2018-12-08T04:55:54.126Z,96437.49
2018-12-08T04:58:23.536Z,96447.87
2018-12-08T05:00:52.986Z,96442.59
2018-12-08T05:03:22.384Z,96437.75
2018-12-08T05:05:51.857Z,96439.56
2018-12-08T05:08:21.288Z,96442.72
2018-12-08T05:10:50.748Z,96461.50
2018-12-08T05:13:20.141Z,96460.75
2018-12-08T05:15:50.620Z,96471.48
2018-12-08T05:18:20.014Z,96473.30
2018-12-08T05:20:49.447Z,96485.37
2018-12-08T05:23:18.849Z,96482.33
2018-12-08T05:25:48.316Z,96478.31
2018-12-08T05:28:17.727Z,96493.92
2018-12-08T05:30:47.157Z,96491.33
2018-12-08T05:33:16.577Z,96506.08
2018-12-08T05:35:46.034Z,96506.08
2018-12-08T05:38:15.468Z,96495.13
2018-12-08T05:40:44.916Z,96487.08
2018-12-08T05:43:14.343Z,96503.65
2018-12-08T05:45:43.785Z,96512.17
2018-12-08T05:48:13.188Z,96519.86
2018-12-08T05:50:42.633Z,96531.92
2018-12-08T05:53:12.035Z,96535.56
2018-12-08T05:55:41.432Z,96535.08
2018-12-08T05:58:10.838Z,96543.25
2018-12-08T06:00:40.405Z,96548.97
2018-12-08T06:03:09.813Z,96545.93
2018-12-08T06:05:39.263Z,96550.78
2018-12-08T06:08:08.661Z,96549.09
2018-12-08T06:10:38.073Z,96546.88
2018-12-08T06:13:07.489Z,96539.58
2018-12-08T06:15:36.909Z,96552.98
2018-12-08T06:18:06.342Z,96544.94
2018-12-08T06:20:35.752Z,96543.13
2018-12-08T06:23:05.168Z,96545.33
2018-12-08T06:25:36.781Z,96537.02
2018-12-08T06:28:20.163Z,96540.45
2018-12-08T06:30:49.561Z,96541.31
2018-12-08T06:33:18.984Z,96533.74
2018-12-08T06:35:48.448Z,96534.61
2018-12-08T06:38:18.124Z,96542.14
2018-12-08T06:40:47.536Z,96527.91
2018-12-08T06:43:16.953Z,96528.73
2018-12-08T06:45:46.384Z,96532.75
2018-12-08T06:48:15.778Z,96546.07
2018-12-08T06:50:45.224Z,96549.70
2018-12-08T06:53:14.636Z,96551.91
2018-12-08T06:55:44.077Z,96549.58
2018-12-08T06:58:13.504Z,96556.80
2018-12-08T07:00:42.911Z,96550.45
2018-12-08T07:03:12.436Z,96560.22
2018-12-08T07:05:41.829Z,96560.45
2018-12-08T07:08:11.228Z,96554.14
2018-12-08T07:10:40.633Z,96558.16
2018-12-08T07:13:10.041Z,96565.73
2018-12-08T07:15:39.474Z,96568.41
2018-12-08T07:18:08.910Z,96565.73
2018-12-08T07:20:38.297Z,96562.06
2018-12-08T07:23:07.468Z,96563.28
2018-12-08T07:25:36.908Z,96578.54
2018-12-08T07:28:06.330Z,96574.00
2018-12-08T07:30:35.738Z,96578.41
2018-12-08T07:33:05.154Z,96591.34
2018-12-08T07:35:34.623Z,96594.77
2018-12-08T07:38:04.032Z,96599.27
2018-12-08T07:40:33.460Z,96586.73
2018-12-08T07:43:02.896Z,96589.50
2018-12-08T07:45:32.320Z,96599.75
2018-12-08T07:48:01.756Z,96599.27
2018-12-08T07:50:31.204Z,96600.49
2018-12-08T07:53:00.696Z,96603.00
2018-12-08T07:55:30.143Z,96613.12
2018-12-08T07:57:59.557Z,96608.72
2018-12-08T08:00:29.013Z,96612.14
2018-12-08T08:02:58.410Z,96625.55
2018-12-08T08:05:27.824Z,96625.20
2018-12-08T08:07:57.287Z,96640.78
2018-12-08T08:10:26.705Z,96649.22
2018-12-08T08:12:56.144Z,96650.08
2018-12-08T08:15:25.560Z,96653.12
2018-12-08T08:17:55.017Z,96662.51
2018-12-08T08:20:24.448Z,96656.19
2018-12-08T08:22:53.904Z,96657.53
2018-12-08T08:25:23.401Z,96669.95
2018-12-08T08:27:52.948Z,96671.18
2018-12-08T08:30:22.393Z,96678.75
2018-12-08T08:32:51.875Z,96679.61
2018-12-08T08:35:21.414Z,96670.58
2018-12-08T08:37:50.960Z,96682.17
2018-12-08T08:40:20.371Z,96690.22
2018-12-08T08:42:49.828Z,96693.77
2018-12-08T08:45:19.264Z,96689.84
2018-12-08T08:47:48.756Z,96688.02
2018-12-08T08:50:18.174Z,96690.97
2018-12-08T08:52:47.805Z,96682.17
2018-12-08T08:55:17.224Z,96686.08
2018-12-08T08:57:46.644Z,96698.03
2018-12-08T09:00:16.088Z,96695.86
2018-12-08T09:02:45.574Z,96706.59
2018-12-08T09:05:15.092Z,96711.83
2018-12-08T09:07:44.557Z,96715.00
2018-12-08T09:10:14.000Z,96717.20
2018-12-08T09:12:43.477Z,96717.56
2018-12-08T09:15:12.953Z,96727.45
2018-12-08T09:17:42.366Z,96723.91
2018-12-08T09:20:13.306Z,96731.95
2018-12-08T09:22:42.720Z,96736.73
2018-12-08T09:25:12.270Z,96738.06
2018-12-08T09:27:41.695Z,96744.90
2018-12-08T09:30:11.993Z,96756.85
2018-12-08T09:32:42.479Z,96752.34
2018-12-08T09:35:11.989Z,96751.84
2018-12-08T09:37:41.533Z,96755.27
2018-12-08T09:40:10.985Z,96755.86
2018-12-08T09:42:40.407Z,96751.60
2018-12-08T09:45:16.093Z,96750.27
2018-12-08T09:47:45.492Z,96752.55
2018-12-08T09:50:14.940Z,96751.69
2018-12-08T09:52:44.372Z,96746.83
2018-12-08T09:55:13.875Z,96743.64
2018-12-08T09:57:43.385Z,96741.34
2018-12-08T10:00:13.924Z,96736.94
2018-12-08T10:02:43.406Z,96739.14
2018-12-08T10:05:12.846Z,96739.14
2018-12-08T10:07:42.272Z,96744.98
2018-12-08T10:10:11.798Z,96736.94
2018-12-08T10:12:41.224Z,96743.91
2018-12-08T10:15:10.644Z,96736.34
2018-12-08T10:17:40.076Z,96739.41
2018-12-08T10:20:09.546Z,96740.75
2018-12-08T10:22:39.030Z,96742.95
2018-12-08T10:25:08.468Z,96736.61
2018-12-08T10:27:37.876Z,96740.28
2018-12-08T10:30:08.669Z,96746.86
2018-12-08T10:32:38.480Z,96740.16
2018-12-08T10:35:11.772Z,96742.84
2018-12-08T10:37:41.509Z,96735.66
2018-12-08T10:40:11.430Z,96740.52
2018-12-08T10:42:41.944Z,96750.77
2018-12-08T10:45:11.414Z,96750.77
2018-12-08T10:47:40.872Z,96753.33
2018-12-08T10:50:11.409Z,96753.84
2018-12-08T10:52:42.888Z,96760.91
2018-12-08T10:55:14.392Z,96760.43
2018-12-08T10:57:43.837Z,96767.14
2018-12-08T11:00:18.337Z,96773.52
2018-12-08T11:02:57.350Z,96775.48
2018-12-08T11:05:26.790Z,96772.53
2018-12-08T11:07:56.257Z,96770.72
2018-12-08T11:10:25.680Z,96770.33
2018-12-08T11:12:55.152Z,96770.72
2018-12-08T11:15:24.581Z,96765.35
2018-12-08T11:17:54.023Z,96764.37
2018-12-08T11:20:23.528Z,96763.02
2018-12-08T11:22:52.968Z,96761.33
2018-12-08T11:25:22.390Z,96761.68
2018-12-08T11:27:51.858Z,96758.52
2018-12-08T11:30:21.300Z,96757.18
2018-12-08T11:32:51.596Z,96760.85
2018-12-08T11:35:21.149Z,96751.69
2018-12-08T11:37:50.737Z,96756.58
2018-12-08T11:40:21.965Z,96760.13
2018-12-08T11:42:51.739Z,96750.73
2018-12-08T11:45:21.788Z,96755.63
2018-12-08T11:47:53.954Z,96748.41
2018-12-08T11:50:24.451Z,96752.44
2018-12-08T11:52:54.074Z,96755.03
2018-12-08T11:55:47.248Z,96757.20
2018-12-08T11:58:51.581Z,96753.57
2018-12-08T12:01:23.367Z,96756.61
2018-12-08T12:03:53.500Z,96751.24
2018-12-08T12:06:24.084Z,96756.52
2018-12-08T12:08:54.086Z,96762.72
2018-12-08T12:11:25.323Z,96753.33
2018-12-08T12:13:56.287Z,96751.03
2018-12-08T12:16:25.728Z,96748.70
2018-12-08T12:18:55.578Z,96748.70
2018-12-08T12:21:25.199Z,96746.02
2018-12-08T12:23:56.718Z,96740.66
2018-12-08T12:26:26.192Z,96742.27
2018-12-08T12:28:55.709Z,96744.08
2018-12-08T12:31:25.448Z,96740.44
2018-12-08T12:33:54.905Z,96737.76
2018-12-08T12:36:25.068Z,96732.75
2018-12-08T12:38:55.665Z,96735.34
2018-12-08T12:41:26.136Z,96728.98
2018-12-08T12:43:55.603Z,96729.85
2018-12-08T12:46:26.067Z,96727.17
2018-12-08T12:48:55.963Z,96730.59
2018-12-08T12:51:25.792Z,96744.88
2018-12-08T12:53:55.228Z,96743.16
2018-12-08T12:56:24.857Z,96736.83
2018-12-08T12:59:01.077Z,96746.22
2018-12-08T13:01:31.405Z,96740.47
2018-12-08T13:04:01.171Z,96732.29
2018-12-08T13:06:31.648Z,96731.22
2018-12-08T13:09:01.268Z,96729.61
2018-12-08T13:11:30.824Z,96734.98
2018-12-08T13:14:00.276Z,96747.56
2018-12-08T13:16:30.838Z,96754.16
2018-12-08T13:19:00.261Z,96745.63
2018-12-08T13:21:29.697Z,96746.97
2018-12-08T13:23:59.141Z,96745.03
2018-12-08T13:26:28.561Z,96752.09
2018-12-08T13:28:58.413Z,96747.59
2018-12-08T13:31:28.023Z,96753.83
2018-12-08T13:33:57.537Z,96748.45
2018-12-08T13:36:27.291Z,96745.65
2018-12-08T13:38:56.724Z,96745.26
2018-12-08T13:41:26.159Z,96750.16
2018-12-08T13:43:56.148Z,96755.52
2018-12-08T13:46:25.549Z,96762.63
2018-12-08T13:48:55.038Z,96749.20
2018-12-08T13:51:24.725Z,96747.85
2018-12-08T13:53:54.269Z,96748.33
2018-12-08T13:56:23.676Z,96746.39
2018-12-08T13:58:53.127Z,96748.59
2018-12-08T14:01:22.851Z,96739.67
2018-12-08T14:03:52.412Z,96738.69
2018-12-08T14:06:21.845Z,96742.72
2018-12-08T14:08:51.281Z,96744.92
2018-12-08T14:11:20.693Z,96746.27
2018-12-08T14:13:50.136Z,96746.27
2018-12-08T14:16:19.558Z,96746.14
2018-12-08T14:18:48.960Z,96747.48
2018-12-08T14:21:18.368Z,96750.69
2018-12-08T14:23:47.804Z,96754.33
2018-12-08T14:26:17.219Z,96756.41
2018-12-08T14:28:46.634Z,96760.44
2018-12-08T14:31:16.114Z,96755.06
2018-12-08T14:33:45.556Z,96750.56
2018-12-08T14:36:14.985Z,96751.42
2018-12-08T14:38:44.429Z,96753.13
2018-12-08T14:41:13.921Z,96749.22
2018-12-08T14:43:43.328Z,96755.45
2018-12-08T14:46:12.797Z,96762.64
2018-12-08T14:48:42.248Z,96768.49
2018-12-08T14:51:11.743Z,96768.14
2018-12-08T14:53:41.157Z,96772.25
2018-12-08T14:56:10.660Z,96776.79
2018-12-08T14:58:41.045Z,96781.77
2018-12-08T15:01:10.616Z,96781.77
2018-12-08T15:03:40.024Z,96788.48
2018-12-08T15:06:09.517Z,96788.61
2018-12-08T15:08:38.961Z,96792.98
2018-12-08T15:11:08.372Z,96789.95
2018-12-08T15:13:37.776Z,96793.50
2018-12-08T15:16:07.197Z,96798.48
2018-12-08T15:18:36.644Z,96804.33
2018-12-08T15:21:06.057Z,96800.69
2018-12-08T15:23:35.476Z,96807.52
2018-12-08T15:26:04.924Z,96814.23
2018-12-08T15:28:34.352Z,96810.80
2018-12-08T15:31:03.763Z,96819.21
2018-12-08T15:33:33.176Z,96815.58
2018-12-08T15:36:02.605Z,96813.72
2018-12-08T15:38:32.014Z,96809.34
2018-12-08T15:41:01.422Z,96800.89
2018-12-08T15:43:30.845Z,96807.87
2018-12-08T15:46:00.285Z,96812.89
2018-12-08T15:48:29.692Z,96810.29
2018-12-08T15:50:59.120Z,96803.49
2018-12-08T15:53:28.560Z,96797.26
2018-12-08T15:55:58.306Z,96808.86
2018-12-08T15:58:27.740Z,96803.58
2018-12-08T16:00:57.168Z,96812.38
2018-12-08T16:03:26.618Z,96814.71
2018-12-08T16:05:56.036Z,96811.03
2018-12-08T16:08:25.616Z,96807.52
2018-12-08T16:10:55.013Z,96812.98
2018-12-08T16:13:24.457Z,96809.34
2018-12-08T16:15:56.276Z,96805.91
2018-12-08T16:18:25.697Z,96807.10
2018-12-08T16:20:55.153Z,96805.49
2018-12-08T16:23:24.596Z,96804.62
2018-12-08T16:25:54.031Z,96803.28
2018-12-08T16:28:23.428Z,96813.55
2018-12-08T16:30:52.854Z,96814.02
2018-12-08T16:33:22.288Z,96820.26
2018-12-08T16:35:51.717Z,96819.78
2018-12-08T16:38:21.137Z,96822.47
2018-12-08T16:40:50.593Z,96819.39
2018-12-08T16:43:20.024Z,96818.80
2018-12-08T16:45:49.506Z,96816.63
2018-12-08T16:48:18.936Z,96821.48
2018-12-08T16:50:48.366Z,96823.80
2018-12-08T16:53:17.784Z,96820.85
2018-12-08T16:55:47.364Z,96816.55
2018-12-08T16:58:16.816Z,96815.06
2018-12-08T17:00:46.252Z,96825.05
2018-12-08T17:03:15.684Z,96820.55
2018-12-08T17:05:45.125Z,96812.50
2018-12-08T17:08:14.554Z,96821.41
2018-12-08T17:10:44.009Z,96821.03
2018-12-08T17:13:13.495Z,96817.51
2018-12-08T17:15:42.967Z,96813.09
2018-12-08T17:18:13.448Z,96809.94
2018-12-08T17:20:42.909Z,96818.11
2018-12-08T17:23:12.321Z,96803.82
2018-12-08T17:25:41.762Z,96803.43
2018-12-08T17:28:11.197Z,96801.26
2018-12-08T17:30:40.624Z,96798.92
2018-12-08T17:33:10.136Z,96798.06
2018-12-08T17:35:39.564Z,96800.74
2018-12-08T17:38:08.994Z,96798.06
2018-12-08T17:40:38.412Z,96809.78
2018-12-08T17:43:07.867Z,96803.79
2018-12-08T17:45:37.306Z,96807.15
2018-12-08T17:48:06.773Z,96806.80
2018-12-08T17:50:36.569Z,96802.77
2018-12-08T17:53:06.012Z,96809.09
2018-12-08T17:55:35.833Z,96809.09
2018-12-08T17:58:05.296Z,96797.88
2018-12-08T18:00:34.750Z,96794.33
2018-12-08T18:03:04.200Z,96793.38
2018-12-08T18:05:33.633Z,96770.92
2018-12-08T18:08:03.152Z,96769.22
2018-12-08T18:10:32.585Z,96782.17
2018-12-08T18:13:02.046Z,96783.00
2018-12-08T18:15:31.509Z,96791.05
2018-12-08T18:18:01.028Z,96774.95
2018-12-08T18:20:30.441Z,96777.63
2018-12-08T18:22:59.880Z,96782.52
2018-12-08T18:25:29.298Z,96765.55
2018-12-08T18:27:58.784Z,96759.36
2018-12-08T18:30:28.188Z,96749.10
2018-12-08T18:32:58.654Z,96762.40
2018-12-08T18:35:28.098Z,96767.77
2018-12-08T18:37:58.216Z,96767.29
2018-12-08T18:40:27.654Z,96772.66
2018-12-08T18:42:57.091Z,96766.90
2018-12-08T18:45:26.548Z,96779.36
2018-12-08T18:47:57.224Z,96780.70
2018-12-08T18:50:26.642Z,96784.25
2018-12-08T18:52:56.077Z,96776.20
2018-12-08T18:55:25.525Z,96768.98
2018-12-08T18:57:54.948Z,96762.78
2018-12-08T19:00:24.350Z,96766.22
2018-12-08T19:02:53.803Z,96773.88
2018-12-08T19:05:23.280Z,96771.08
2018-12-08T19:07:52.684Z,96769.73
2018-12-08T19:10:22.100Z,96779.63
2018-12-08T19:12:51.518Z,96784.02
2018-12-08T19:15:21.020Z,96786.97
2018-12-08T19:17:50.456Z,96786.97
2018-12-08T19:20:19.880Z,96781.22
2018-12-08T19:22:49.316Z,96785.23
2018-12-08T19:25:18.834Z,96790.13
2018-12-08T19:27:48.389Z,96792.81
2018-12-08T19:30:17.840Z,96791.12
2018-12-08T19:32:47.311Z,96787.17
2018-12-08T19:35:16.855Z,96785.59
2018-12-08T19:37:46.298Z,96781.06
2018-12-08T19:40:15.734Z,96789.03
2018-12-08T19:42:45.164Z,96792.55
2018-12-08T19:45:14.606Z,96793.05
2018-12-08T19:47:44.049Z,96797.08
2018-12-08T19:50:13.473Z,96798.51
2018-12-08T19:52:43.038Z,96796.95
2018-12-08T19:55:12.465Z,96797.08
2018-12-08T19:57:42.070Z,96790.38
2018-12-08T20:00:12.716Z,96785.84
2018-12-08T20:02:43.342Z,96781.81
2018-12-08T20:05:12.829Z,96770.72
2018-12-08T20:07:42.264Z,96774.63
2018-12-08T20:10:11.702Z,96781.81
2018-12-08T20:12:41.356Z,96788.31
2018-12-08T20:15:12.473Z,96774.03
2018-12-08T20:17:41.987Z,96775.37
2018-12-08T20:20:11.413Z,96771.73
2018-12-08T20:22:41.514Z,96768.06
2018-12-08T20:25:11.013Z,96759.89
2018-12-08T20:27:40.486Z,96754.05
2018-12-08T20:30:10.120Z,96767.47
2018-12-08T20:32:39.559Z,96764.78
2018-12-08T20:35:09.056Z,96757.13
2018-12-08T20:37:38.629Z,96762.48
2018-12-08T20:40:08.737Z,96759.20
2018-12-08T20:42:38.180Z,96748.47
2018-12-08T20:45:07.701Z,96750.17
2018-12-08T20:47:37.260Z,96742.12
2018-12-08T20:50:07.900Z,96747.90
2018-12-08T20:52:37.382Z,96743.39
2018-12-08T20:55:06.852Z,96741.31
2018-12-08T20:57:36.284Z,96736.89
2018-12-08T21:00:06.022Z,96728.48
2018-12-08T21:02:35.444Z,96727.14
2018-12-08T21:05:04.888Z,96720.44
2018-12-08T21:07:34.358Z,96707.84
2018-12-08T21:10:03.921Z,96701.88
2018-12-08T21:12:33.486Z,96704.20
2018-12-08T21:15:02.950Z,96698.45
2018-12-08T21:17:32.353Z,96695.29
2018-12-08T21:20:01.796Z,96696.16
2018-12-08T21:22:32.340Z,96692.60
2018-12-08T21:25:01.761Z,96700.45
2018-12-08T21:27:31.148Z,96694.09
2018-12-08T21:30:00.589Z,96697.16
2018-12-08T21:32:30.041Z,96693.97
2018-12-08T21:34:59.491Z,96690.33
2018-12-08T21:37:28.901Z,96688.00
2018-12-08T21:39:58.372Z,96686.66
2018-12-08T21:42:27.797Z,96690.20
2018-12-08T21:44:57.225Z,96692.02
2018-12-08T21:47:26.637Z,96686.17
2018-12-08T21:49:56.125Z,96678.25
2018-12-08T21:52:25.524Z,96687.04
2018-12-08T21:54:54.956Z,96680.20
2018-12-08T21:57:24.364Z,96678.38
2018-12-08T21:59:53.824Z,96672.03
2018-12-08T22:02:24.317Z,96664.84
2018-12-08T22:04:53.733Z,96672.03
2018-12-08T22:07:23.136Z,96671.55
2018-12-08T22:09:52.552Z,96670.69
2018-12-08T22:12:21.979Z,96668.00
2018-12-08T22:14:56.665Z,96671.55
2018-12-08T22:17:26.162Z,96670.59
2018-12-08T22:19:55.691Z,96669.61
2018-12-08T22:22:25.402Z,96649.47
2018-12-08T22:24:54.838Z,96648.61
2018-12-08T22:27:24.281Z,96646.05
2018-12-08T22:29:53.744Z,96653.14
2018-12-08T22:32:23.185Z,96653.98
2018-12-08T22:34:52.598Z,96644.09
2018-12-08T22:37:22.044Z,96646.78
2018-12-08T22:39:51.452Z,96652.16
2018-12-08T22:42:20.888Z,96636.91
2018-12-08T22:44:51.361Z,96638.73
2018-12-08T22:47:20.793Z,96638.73
2018-12-08T22:49:50.404Z,96637.86
2018-12-08T22:52:19.856Z,96637.86
2018-12-08T22:54:49.300Z,96630.20
2018-12-08T22:57:18.851Z,96628.86
2018-12-08T22:59:48.329Z,96617.86
2018-12-08T23:02:17.768Z,96632.27
2018-12-08T23:04:47.200Z,96618.94
2018-12-08T23:07:16.652Z,96610.53
2018-12-08T23:09:46.057Z,96611.01
2018-12-08T23:12:15.508Z,96597.23
2018-12-08T23:14:44.921Z,96605.38
2018-12-08T23:17:14.352Z,96606.24
2018-12-08T23:19:43.780Z,96592.47
2018-12-08T23:22:13.208Z,96595.63
2018-12-08T23:24:42.652Z,96585.75
2018-12-08T23:27:12.067Z,96584.89
2018-12-08T23:29:41.484Z,96575.02
2018-12-08T23:32:10.909Z,96578.18
2018-12-08T23:34:40.313Z,96562.08
2018-12-08T23:37:09.701Z,96558.17
2018-12-08T23:39:40.693Z,96548.27
2018-12-08T23:42:10.295Z,96541.56
2018-12-08T23:44:39.708Z,96523.28
2018-12-08T23:47:09.108Z,96522.42
2018-12-08T23:49:38.537Z,96520.69
2018-12-08T23:52:07.940Z,96524.72
2018-12-08T23:54:37.341Z,96524.37
2018-12-08T23:57:06.749Z,96512.41
2018-12-08T23:59:36.296Z,96502.16
